Time;durP1;ratioP1;P1;durP2;ratioP2;P2;SDS_P1;SDS_P2;PMS_P1;PMS_P2;Temp;Humidity;BMP_temperature;BMP_pressure;BME280_temperature;BME280_humidity;BME280_pressure;Samples;Min_cycle;Max_cycle;Signal;HPM_P1;HPM_P2
2019/07/05 00:02:06;;;;;;;4.3;1.9;;;;;;;31.45;23.20898;1004.766;;;;
2019/07/05 00:04:31;;;;;;;4.5;1.8;;;;;;;31.45;23.2334;1004.766;;;;
2019/07/05 00:05:19;;;;;;;4;1.8;;;;;;;31.45;23.24609;1004.781;;;;
2019/07/05 00:07:44;;;;;;;5.1;1.8;;;;;;;31.45;23.2334;1004.753;;;;
2019/07/05 00:11:04;;;;;;;3.4;2;;;;;;;31.45;23.27051;1004.775;;;;
2019/07/05 00:13:28;;;;;;;6.7;2;;;;;;;31.45;23.2832;1004.802;;;;
2019/07/05 00:13:49;;;;;;;4.2;2;;;;;;;31.46;23.2832;1004.813;;;;
2019/07/05 00:16:15;;;;;;;2.9;1.9;;;;;;;31.46;23.29492;1004.82;;;;
2019/07/05 00:19:35;;;;;;;4.8;1.9;;;;;;;31.44;23.33105;1004.8;;;;
2019/07/05 00:19:48;;;;;;;5.4;2;;;;;;;31.44;23.33105;1004.821;;;;
2019/07/05 00:22:13;;;;;;;2.4;1.6;;;;;;;31.44;23.35645;1004.809;;;;
2019/07/05 00:25:33;;;;;;;3.9;1.9;;;;;;;31.45;23.38086;1004.734;;;;
2019/07/05 00:27:58;;;;;;;3;1.6;;;;;;;31.44;23.44141;1004.748;;;;
2019/07/05 00:30:23;;;;;;;3.5;1.8;;;;;;;31.44;23.47852;1004.773;;;;
2019/07/05 00:32:49;;;;;;;5.6;2.2;;;;;;;31.42;23.51465;1004.734;;;;
2019/07/05 00:35:14;;;;;;;3.9;1.6;;;;;;;31.4;23.5625;1004.726;;;;
2019/07/05 00:35:51;;;;;;;3.6;1.7;;;;;;;31.41;23.56348;1004.718;;;;
2019/07/05 00:39:10;;;;;;;3.2;1.9;;;;;;;31.39;23.61133;1004.718;;;;
2019/07/05 00:39:19;;;;;;;2.4;1.6;;;;;;;31.39;23.61133;1004.67;;;;
2019/07/05 00:41:44;;;;;;;3.7;1.7;;;;;;;31.36;23.65918;1004.637;;;;
2019/07/05 00:44:08;;;;;;;4.1;1.8;;;;;;;31.35;23.71875;1004.624;;;;
2019/07/05 00:44:24;;;;;;;4.1;1.9;;;;;;;31.35;23.73145;1004.651;;;;
2019/07/05 00:46:49;;;;;;;4.4;1.9;;;;;;;31.35;23.74316;1004.649;;;;
2019/07/05 00:49:14;;;;;;;2.6;1.7;;;;;;;31.34;23.75586;1004.621;;;;
2019/07/05 00:52:34;;;;;;;3.4;1.8;;;;;;;31.34;23.79297;1004.6;;;;
2019/07/05 00:54:59;;;;;;;4.3;1.8;;;;;;;31.34;23.79297;1004.596;;;;
2019/07/05 00:57:24;;;;;;;3.2;1.6;;;;;;;31.34;23.78027;1004.618;;;;
2019/07/05 01:00:43;;;;;;;3.8;1.9;;;;;;;31.35;23.81738;1004.593;;;;
2019/07/05 01:03:11;;;;;;;3.8;1.9;;;;;;;31.33;23.85449;1004.559;;;;
2019/07/05 01:05:35;;;;;;;3.6;1.7;;;;;;;31.32;23.85352;1004.579;;;;
2019/07/05 01:08:00;;;;;;;2.7;1.7;;;;;;;31.33;23.85352;1004.602;;;;
2019/07/05 01:10:25;;;;;;;2.5;1.7;;;;;;;31.33;23.8291;1004.589;;;;
2019/07/05 01:10:35;;;;;;;2.1;1.6;;;;;;;31.33;23.8418;1004.567;;;;
2019/07/05 01:13:00;;;;;;;3;1.7;;;;;;;31.33;23.8291;1004.589;;;;
2019/07/05 01:16:19;;;;;;;3.7;1.7;;;;;;;31.34;23.85449;1004.612;;;;
2019/07/05 01:18:45;;;;;;;3.5;1.8;;;;;;;31.34;23.85449;1004.584;;;;
2019/07/05 01:19:03;;;;;;;2.5;1.6;;;;;;;31.34;23.83008;1004.576;;;;
2019/07/05 01:21:28;;;;;;;5.4;1.8;;;;;;;31.34;23.8418;1004.599;;;;
2019/07/05 01:24:47;;;;;;;3.2;1.6;;;;;;;31.35;23.87891;1004.619;;;;
2019/07/05 01:28:06;;;;;;;3.5;1.7;;;;;;;31.33;23.90234;1004.621;;;;
2019/07/05 01:28:28;;;;;;;3.4;1.8;;;;;;;31.33;23.90332;1004.63;;;;
2019/07/05 01:30:53;;;;;;;2.2;1.7;;;;;;;31.32;23.93945;1004.623;;;;
2019/07/05 01:34:13;;;;;;;3.9;1.8;;;;;;;31.32;23.96289;1004.649;;;;
2019/07/05 01:36:39;;;;;;;3.3;1.6;;;;;;;31.31;23.98828;1004.686;;;;
2019/07/05 01:39:57;;;;;;;2;1.6;;;;;;;31.29;24.04785;1004.665;;;;
2019/07/05 01:42:22;;;;;;;5.4;1.7;;;;;;;31.3;24.04883;1004.67;;;;
2019/07/05 01:44:47;;;;;;;4.8;1.8;;;;;;;31.29;24.03613;1004.649;;;;
2019/07/05 01:47:13;;;;;;;4.6;1.9;;;;;;;31.29;24.06055;1004.664;;;;
2019/07/05 01:50:32;;;;;;;4;1.8;;;;;;;31.29;24.07227;1004.655;;;;
2019/07/05 01:52:57;;;;;;;2.6;1.5;;;;;;;31.28;24.08496;1004.617;;;;
2019/07/05 01:55:22;;;;;;;4.2;2;;;;;;;31.28;24.10938;1004.605;;;;
2019/07/05 01:58:42;;;;;;;3.5;1.9;;;;;;;31.28;24.12109;1004.536;;;;
2019/07/05 02:01:08;;;;;;;3.4;2.1;;;;;;;31.27;24.13281;1004.524;;;;
2019/07/05 02:03:33;;;;;;;4.8;1.8;;;;;;;31.25;24.14453;1004.522;;;;
2019/07/05 02:05:59;;;;;;;3;2;;;;;;;31.27;24.13281;1004.556;;;;
2019/07/05 02:09:18;;;;;;;4.2;1.9;;;;;;;31.25;24.15723;1004.547;;;;
2019/07/05 02:11:43;;;;;;;3.5;1.9;;;;;;;31.26;24.16895;1004.565;;;;
2019/07/05 02:15:02;;;;;;;4.5;2.2;;;;;;;31.23;24.2168;1004.472;;;;
2019/07/05 02:17:28;;;;;;;4.2;2.2;;;;;;;31.22;24.25293;1004.474;;;;
2019/07/05 02:19:54;;;;;;;3.7;1.9;;;;;;;31.21;24.25195;1004.502;;;;
2019/07/05 02:22:18;;;;;;;2.6;2;;;;;;;31.2;24.27637;1004.494;;;;
2019/07/05 02:24:43;;;;;;;3;2.1;;;;;;;31.2;24.26465;1004.46;;;;
2019/07/05 02:25:05;;;;;;;2.7;1.9;;;;;;;31.2;24.26465;1004.481;;;;
2019/07/05 02:27:30;;;;;;;3.1;2.1;;;;;;;31.19;24.30078;1004.459;;;;
2019/07/05 02:29:54;;;;;;;4.9;2;;;;;;;31.2;24.30078;1004.465;;;;
2019/07/05 02:32:20;;;;;;;4.3;1.9;;;;;;;31.19;24.31348;1004.486;;;;
2019/07/05 02:34:46;;;;;;;3;2.2;;;;;;;31.19;24.32617;1004.491;;;;
2019/07/05 02:37:10;;;;;;;3.8;2.2;;;;;;;31.2;24.30078;1004.498;;;;
2019/07/05 02:39:36;;;;;;;4.4;2.4;;;;;;;31.2;24.32617;1004.503;;;;
2019/07/05 02:42:55;;;;;;;4.8;2;;;;;;;31.17;24.34863;1004.487;;;;
2019/07/05 02:45:22;;;;;;;3.2;2;;;;;;;31.17;24.34863;1004.522;;;;
2019/07/05 02:47:45;;;;;;;3.4;2.1;;;;;;;31.18;24.34961;1004.494;;;;
2019/07/05 02:50:11;;;;;;;4.4;2.2;;;;;;;31.17;24.36133;1004.496;;;;
2019/07/05 02:52:36;;;;;;;3.1;1.9;;;;;;;31.17;24.36133;1004.498;;;;
2019/07/05 02:55:02;;;;;;;2.4;1.9;;;;;;;31.19;24.36133;1004.507;;;;
2019/07/05 02:57:26;;;;;;;2.5;1.9;;;;;;;31.18;24.38574;1004.465;;;;
2019/07/05 02:57:54;;;;;;;6;2;;;;;;;31.18;24.38574;1004.498;;;;
2019/07/05 03:00:19;;;;;;;4.4;1.8;;;;;;;31.2;24.375;1004.515;;;;
2019/07/05 03:02:45;;;;;;;3.2;2;;;;;;;31.18;24.38574;1004.5;;;;
2019/07/05 03:06:04;;;;;;;2.7;2;;;;;;;31.17;24.39844;1004.475;;;;
2019/07/05 03:08:29;;;;;;;3.1;2;;;;;;;31.18;24.42285;1004.475;;;;
2019/07/05 03:10:54;;;;;;;4.4;2.1;;;;;;;31.18;24.39844;1004.427;;;;
2019/07/05 03:13:20;;;;;;;4.4;2.1;;;;;;;31.18;24.42285;1004.469;;;;
2019/07/05 03:15:45;;;;;;;3.4;1.8;;;;;;;31.17;24.42285;1004.499;;;;
2019/07/05 03:18:11;;;;;;;3.8;2.1;;;;;;;31.17;24.42285;1004.491;;;;
2019/07/05 03:21:30;;;;;;;3.6;2.1;;;;;;;31.16;24.44629;1004.517;;;;
2019/07/05 03:22:23;;;;;;;3.1;2;;;;;;;31.16;24.44629;1004.508;;;;
2019/07/05 03:24:49;;;;;;;3.2;1.9;;;;;;;31.16;24.44629;1004.483;;;;
2019/07/05 03:27:14;;;;;;;3.4;1.9;;;;;;;31.16;24.45898;1004.457;;;;
2019/07/05 03:29:39;;;;;;;4.5;2.2;;;;;;;31.15;24.45801;1004.423;;;;
2019/07/05 03:32:04;;;;;;;3.3;1.9;;;;;;;31.16;24.45898;1004.429;;;;
2019/07/05 03:32:30;;;;;;;2.7;1.9;;;;;;;31.15;24.46973;1004.441;;;;
2019/07/05 03:34:56;;;;;;;3.4;1.9;;;;;;;31.14;24.48242;1004.395;;;;
2019/07/05 03:37:23;;;;;;;4.7;2.3;;;;;;;31.13;24.48145;1004.41;;;;
2019/07/05 03:39:46;;;;;;;5;2.3;;;;;;;31.14;24.48242;1004.386;;;;
2019/07/05 03:42:12;;;;;;;4.9;2;;;;;;;31.15;24.46973;1004.423;;;;
2019/07/05 03:44:37;;;;;;;3.1;2.1;;;;;;;31.13;24.50586;1004.372;;;;
2019/07/05 03:47:02;;;;;;;5.1;2.1;;;;;;;31.13;24.53027;1004.367;;;;
2019/07/05 03:47:40;;;;;;;4.7;2.1;;;;;;;31.13;24.53027;1004.373;;;;
2019/07/05 03:50:05;;;;;;;6.4;1.9;;;;;;;31.12;24.54199;1004.336;;;;
2019/07/05 03:52:31;;;;;;;6.3;2.4;;;;;;;31.13;24.54199;1004.349;;;;
2019/07/05 03:54:56;;;;;;;8.2;2.1;;;;;;;31.12;24.55469;1004.321;;;;
2019/07/05 03:57:21;;;;;;;6.7;2.2;;;;;;;31.11;24.55469;1004.332;;;;
2019/07/05 03:59:46;;;;;;;8.3;2.1;;;;;;;31.12;24.55469;1004.315;;;;
2019/07/05 04:02:12;;;;;;;7.9;2.2;;;;;;;31.13;24.55566;1004.32;;;;
2019/07/05 04:04:37;;;;;;;6.8;2.4;;;;;;;31.12;24.56738;1004.288;;;;
2019/07/05 04:07:02;;;;;;;7.4;2.4;;;;;;;31.12;24.56738;1004.293;;;;
2019/07/05 04:09:27;;;;;;;8.7;2.3;;;;;;;31.11;24.59082;1004.305;;;;
2019/07/05 04:12:47;;;;;;;8.1;2.3;;;;;;;31.1;24.59082;1004.338;;;;
2019/07/05 04:15:12;;;;;;;6.6;2.3;;;;;;;31.1;24.61426;1004.328;;;;
2019/07/05 04:17:37;;;;;;;5.2;2.1;;;;;;;31.1;24.62695;1004.358;;;;
2019/07/05 04:17:58;;;;;;;5.2;1.9;;;;;;;31.09;24.62695;1004.354;;;;
2019/07/05 04:20:23;;;;;;;5.7;2.2;;;;;;;31.09;24.62695;1004.344;;;;
2019/07/05 04:20:32;;;;;;;4.8;2.2;;;;;;;31.09;24.62695;1004.305;;;;
2019/07/05 04:22:58;;;;;;;6.8;2.2;;;;;;;31.1;24.62695;1004.303;;;;
2019/07/05 04:25:23;;;;;;;6.5;2.3;;;;;;;31.09;24.65137;1004.323;;;;
2019/07/05 04:27:49;;;;;;;5.1;2.2;;;;;;;31.09;24.66406;1004.307;;;;
2019/07/05 04:30:14;;;;;;;7;2.2;;;;;;;31.08;24.66309;1004.361;;;;
2019/07/05 04:32:39;;;;;;;4.1;1.9;;;;;;;31.09;24.67578;1004.394;;;;
2019/07/05 04:35:04;;;;;;;4.8;2;;;;;;;31.09;24.68848;1004.429;;;;
2019/07/05 04:37:30;;;;;;;4.7;2.1;;;;;;;31.11;24.68848;1004.416;;;;
2019/07/05 04:39:55;;;;;;;5.5;2.3;;;;;;;31.09;24.7002;1004.383;;;;
2019/07/05 04:42:20;;;;;;;6.4;2.3;;;;;;;31.09;24.7373;1004.389;;;;
2019/07/05 04:44:45;;;;;;;5.3;2.2;;;;;;;31.1;24.72559;1004.411;;;;
2019/07/05 04:47:11;;;;;;;5.6;2;;;;;;;31.12;24.73926;1004.447;;;;
2019/07/05 04:49:36;;;;;;;3.8;2;;;;;;;31.13;24.73926;1004.473;;;;
2019/07/05 04:52:02;;;;;;;5.7;2.1;;;;;;;31.14;24.76465;1004.508;;;;
2019/07/05 04:54:27;;;;;;;4.5;2.1;;;;;;;31.14;24.72852;1004.498;;;;
2019/07/05 04:56:52;;;;;;;6.4;2.1;;;;;;;31.16;24.72852;1004.581;;;;
2019/07/05 05:00:11;;;;;;;5.9;2.1;;;;;;;31.17;24.72949;1004.588;;;;
2019/07/05 05:02:37;;;;;;;4.5;2;;;;;;;31.18;24.74219;1004.599;;;;
2019/07/05 05:05:02;;;;;;;4.7;2.1;;;;;;;31.21;24.78027;1004.641;;;;
2019/07/05 05:07:28;;;;;;;8.6;1.8;;;;;;;31.23;24.80664;1004.644;;;;
2019/07/05 05:09:53;;;;;;;6.6;2.4;;;;;;;31.24;25.26074;1004.647;;;;
2019/07/05 05:12:18;;;;;;;5.8;2.2;;;;;;;31.27;24.87012;1004.682;;;;
2019/07/05 05:14:43;;;;;;;9.2;2.4;;;;;;;31.28;24.8584;1004.678;;;;
2019/07/05 05:17:09;;;;;;;10.4;2.2;;;;;;;31.31;24.84766;1004.679;;;;
2019/07/05 05:19:34;;;;;;;9.2;2.1;;;;;;;31.33;24.87402;1004.721;;;;
2019/07/05 05:21:59;;;;;;;5.8;2.1;;;;;;;31.36;24.82617;1004.722;;;;
2019/07/05 05:24:24;;;;;;;5.7;2.2;;;;;;;31.38;24.76465;1004.747;;;;
2019/07/05 05:26:50;;;;;;;3.9;2.2;;;;;;;31.39;24.66797;1004.768;;;;
2019/07/05 05:29:15;;;;;;;5.8;2.3;;;;;;;31.37;24.66699;1004.736;;;;
2019/07/05 05:31:40;;;;;;;7.7;2.2;;;;;;;31.37;24.61719;1004.8;;;;
2019/07/05 05:34:06;;;;;;;5.1;2.1;;;;;;;31.36;24.59277;1004.771;;;;
2019/07/05 05:36:32;;;;;;;8.6;2.4;;;;;;;31.35;24.58008;1004.775;;;;
2019/07/05 05:38:57;;;;;;;5.5;2.4;;;;;;;31.34;24.5791;1004.781;;;;
2019/07/05 05:42:16;;;;;;;7;2.2;;;;;;;31.33;24.60254;1004.86;;;;
2019/07/05 05:44:41;;;;;;;7.4;2.4;;;;;;;31.32;24.61523;1004.876;;;;
2019/07/05 05:48:00;;;;;;;6.3;2.3;;;;;;;31.32;24.63867;1004.891;;;;
2019/07/05 05:51:19;;;;;;;6.6;2.2;;;;;;;31.31;24.63867;1004.905;;;;
2019/07/05 05:54:38;;;;;;;5.2;1.9;;;;;;;31.3;24.66309;1004.936;;;;
2019/07/05 05:57:04;;;;;;;6;2;;;;;;;31.3;24.73633;1004.962;;;;
2019/07/05 05:59:29;;;;;;;7.9;2.4;;;;;;;31.29;24.8584;1004.93;;;;
2019/07/05 06:01:54;;;;;;;8.1;2.5;;;;;;;31.29;24.93262;1004.929;;;;
2019/07/05 06:04:20;;;;;;;7.4;2.3;;;;;;;31.28;25.03027;1004.886;;;;
2019/07/05 06:06:45;;;;;;;3.9;2;;;;;;;31.26;25.18848;1004.904;;;;
2019/07/05 06:09:32;;;;;;;4.4;2.2;;;;;;;31.25;25.32324;1004.929;;;;
2019/07/05 06:11:57;;;;;;;9.2;2.1;;;;;;;31.25;25.43359;1004.971;;;;
2019/07/05 06:12:13;;;;;;;8.1;2.6;;;;;;;31.26;25.42188;1004.963;;;;
2019/07/05 06:14:38;;;;;;;4.4;2.2;;;;;;;31.24;25.50684;1004.935;;;;
2019/07/05 06:17:04;;;;;;;6;2.3;;;;;;;31.22;25.54297;1004.946;;;;
2019/07/05 06:19:30;;;;;;;6.6;2;;;;;;;31.21;25.56641;1005.008;;;;
2019/07/05 06:21:54;;;;;;;6.7;2.2;;;;;;;31.19;25.65137;1005.005;;;;
2019/07/05 06:25:14;;;;;;;7.3;2.3;;;;;;;31.17;25.6377;1005.049;;;;
2019/07/05 06:27:39;;;;;;;7.9;2.4;;;;;;;31.17;25.6748;1005.075;;;;
2019/07/05 06:30:58;;;;;;;5.2;2.1;;;;;;;31.16;25.73535;1005.115;;;;
2019/07/05 06:33:24;;;;;;;8.2;2.5;;;;;;;31.15;25.78418;1005.132;;;;
2019/07/05 06:35:49;;;;;;;7;2.3;;;;;;;31.16;25.77246;1005.136;;;;
2019/07/05 06:38:14;;;;;;;7.7;2.3;;;;;;;31.16;25.79688;1005.178;;;;
2019/07/05 06:41:33;;;;;;;5.8;2.3;;;;;;;31.14;25.82031;1005.143;;;;
2019/07/05 06:43:59;;;;;;;4.9;2.2;;;;;;;31.14;25.87012;1005.142;;;;
2019/07/05 06:46:24;;;;;;;6.8;2.4;;;;;;;31.14;25.88184;1005.126;;;;
2019/07/05 06:48:49;;;;;;;7.8;2.5;;;;;;;31.16;25.88281;1005.166;;;;
2019/07/05 06:52:08;;;;;;;6.1;2.3;;;;;;;31.14;25.99316;1005.232;;;;
2019/07/05 06:55:28;;;;;;;3.6;2.3;;;;;;;31.14;26.0293;1005.277;;;;
2019/07/05 06:57:55;;;;;;;6.1;2.4;;;;;;;31.14;26.07813;1005.335;;;;
2019/07/05 07:00:19;;;;;;;7.6;2.6;;;;;;;31.12;26.07715;1005.357;;;;
2019/07/05 07:02:44;;;;;;;6.6;2.4;;;;;;;31.11;26.12598;1005.378;;;;
2019/07/05 07:06:03;;;;;;;5.9;2.5;;;;;;;31.12;26.12598;1005.4;;;;
2019/07/05 07:08:29;;;;;;;6;2.3;;;;;;;31.13;26.10254;1005.449;;;;
2019/07/05 07:10:54;;;;;;;7.5;2.4;;;;;;;31.13;25.94238;1005.444;;;;
2019/07/05 07:13:20;;;;;;;6.3;2.4;;;;;;;31.11;25.63477;1005.431;;;;
2019/07/05 07:15:45;;;;;;;8;2.3;;;;;;;31.09;25.2041;1005.427;;;;
2019/07/05 07:18:10;;;;;;;6.7;2.2;;;;;;;31.08;24.85938;1005.354;;;;
2019/07/05 07:21:29;;;;;;;7.5;2;;;;;;;31.09;24.76172;1005.36;;;;
2019/07/05 07:23:55;;;;;;;9.2;2;;;;;;;31.08;24.61426;1005.34;;;;
2019/07/05 07:26:20;;;;;;;6;2.1;;;;;;;31.09;24.66406;1005.336;;;;
2019/07/05 07:28:46;;;;;;;5.8;2;;;;;;;31.09;24.62695;1005.313;;;;
2019/07/05 07:31:11;;;;;;;5.6;2;;;;;;;31.1;24.41895;1005.314;;;;
2019/07/05 07:33:36;;;;;;;5.5;2.2;;;;;;;31.09;24.24609;1005.315;;;;
2019/07/05 07:36:01;;;;;;;7.6;2.1;;;;;;;31.07;24.06055;1005.245;;;;
2019/07/05 07:38:27;;;;;;;4.9;1.9;;;;;;;31.07;23.9502;1005.303;;;;
2019/07/05 07:41:47;;;;;;;6.3;1.9;;;;;;;31.07;23.75391;1005.397;;;;
2019/07/05 07:45:59;;;;;;;6.3;1.8;;;;;;;31.11;23.40039;1005.28;;;;
2019/07/05 07:48:25;;;;;;;8;1.9;;;;;;;31.1;23.32617;1005.229;;;;
2019/07/05 07:50:50;;;;;;;9.7;2;;;;;;;31.09;23.23926;1005.221;;;;
2019/07/05 07:53:15;;;;;;;6;1.9;;;;;;;31.1;23.19043;1005.182;;;;
2019/07/05 07:55:40;;;;;;;7.2;1.9;;;;;;;31.11;23.16699;1005.138;;;;
2019/07/05 07:59:53;;;;;;;7.8;2;;;;;;;31.13;23.09375;1005.094;;;;
2019/07/05 08:02:19;;;;;;;6.1;1.9;;;;;;;31.15;23.08301;1005.134;;;;
2019/07/05 08:02:52;;;;;;;7.4;1.8;;;;;;;31.15;23.10742;1005.165;;;;
2019/07/05 08:05:17;;;;;;;7.5;1.8;;;;;;;31.16;23.0957;1005.188;;;;
2019/07/05 08:07:43;;;;;;;5.2;1.9;;;;;;;31.19;23.10938;1005.213;;;;
2019/07/05 08:10:08;;;;;;;5.4;1.9;;;;;;;31.2;23.08496;1005.175;;;;
2019/07/05 08:12:34;;;;;;;8.2;2;;;;;;;31.22;23.0498;1005.182;;;;
2019/07/05 08:15:54;;;;;;;5.8;1.8;;;;;;;31.23;23.03809;1005.23;;;;
2019/07/05 08:18:18;;;;;;;7.5;2.1;;;;;;;31.24;22.96484;1005.227;;;;
2019/07/05 08:21:37;;;;;;;3.9;1.8;;;;;;;31.25;22.95313;1005.205;;;;
2019/07/05 08:24:03;;;;;;;6;1.9;;;;;;;31.25;22.92871;1005.142;;;;
2019/07/05 08:26:28;;;;;;;4;1.7;;;;;;;31.27;22.8916;1005.167;;;;
2019/07/05 08:28:53;;;;;;;5.9;2.2;;;;;;;31.29;22.88086;1005.201;;;;
2019/07/05 08:31:18;;;;;;;4;1.9;;;;;;;31.31;22.88184;1005.2;;;;
2019/07/05 08:31:32;;;;;;;5;1.8;;;;;;;31.3;22.88184;1005.193;;;;
2019/07/05 08:33:58;;;;;;;6.1;2.1;;;;;;;31.32;22.85742;1005.17;;;;
2019/07/05 08:36:23;;;;;;;5.6;2.2;;;;;;;31.34;22.84668;1005.161;;;;
2019/07/05 08:38:49;;;;;;;5.2;1.9;;;;;;;31.36;22.84766;1005.138;;;;
2019/07/05 08:41:14;;;;;;;8;2.2;;;;;;;31.37;22.82324;1005.126;;;;
2019/07/05 08:43:40;;;;;;;8.4;2.1;;;;;;;31.38;22.88574;1005.133;;;;
2019/07/05 08:46:06;;;;;;;8.4;2.2;;;;;;;31.43;22.86328;1005.121;;;;
2019/07/05 08:48:30;;;;;;;8;2;;;;;;;31.47;22.85352;1005.156;;;;
2019/07/05 08:50:56;;;;;;;8.3;2.3;;;;;;;31.51;22.86719;1005.121;;;;
2019/07/05 08:53:21;;;;;;;5.2;2.1;;;;;;;31.53;22.88086;1005.132;;;;
2019/07/05 08:53:25;;;;;;;4.6;2;;;;;;;31.53;22.86914;1005.111;;;;
2019/07/05 08:55:50;;;;;;;5.5;1.8;;;;;;;31.57;22.89551;1005.099;;;;
2019/07/05 08:59:09;;;;;;;5.5;2;;;;;;;31.61;22.89746;1005.062;;;;
2019/07/05 09:01:35;;;;;;;4.5;1.8;;;;;;;31.65;22.96094;1005.031;;;;
2019/07/05 09:04:01;;;;;;;6.4;2;;;;;;;31.67;23.08496;1005.052;;;;
2019/07/05 09:06:25;;;;;;;5.5;1.9;;;;;;;31.7;23.11133;1005.09;;;;
2019/07/05 09:09:47;;;;;;;6.5;1.9;;;;;;;31.72;23.08691;1005.108;;;;
2019/07/05 09:12:10;;;;;;;5.5;2.1;;;;;;;31.73;23.02637;1005.095;;;;
2019/07/05 09:14:35;;;;;;;5.6;1.8;;;;;;;31.75;23.08887;1005.083;;;;
2019/07/05 09:17:01;;;;;;;6.1;2.1;;;;;;;31.76;23.10156;1005.065;;;;
2019/07/05 09:19:26;;;;;;;6.5;2;;;;;;;31.76;23.11328;1005.064;;;;
2019/07/05 09:21:52;;;;;;;11.2;2.1;;;;;;;31.77;23.36035;1005.083;;;;
2019/07/05 09:24:17;;;;;;;5;1.8;;;;;;;31.79;23.22656;1005.072;;;;
2019/07/05 09:27:36;;;;;;;7.2;2;;;;;;;31.83;23.32617;1005.095;;;;
2019/07/05 09:30:02;;;;;;;8.3;2.3;;;;;;;31.84;23.30176;1005.042;;;;
2019/07/05 09:32:27;;;;;;;7.7;2.2;;;;;;;31.85;23.40137;1005.034;;;;
2019/07/05 09:34:52;;;;;;;7.2;2;;;;;;;31.87;23.31641;1004.998;;;;
2019/07/05 09:37:17;;;;;;;5.1;1.8;;;;;;;31.88;23.37793;1005.02;;;;
2019/07/05 09:39:43;;;;;;;5.7;2;;;;;;;31.88;23.43945;1005.033;;;;
2019/07/05 09:43:02;;;;;;;6.7;2;;;;;;;31.89;23.28027;1005.028;;;;
2019/07/05 09:45:26;;;;;;;4.5;2.1;;;;;;;31.9;23.76074;1004.996;;;;
2019/07/05 09:47:52;;;;;;;9.3;2;;;;;;;31.91;24.01953;1004.94;;;;
2019/07/05 09:50:17;;;;;;;6.3;2;;;;;;;31.98;23.49414;1004.924;;;;
2019/07/05 09:52:43;;;;;;;8.3;2;;;;;;;31.98;23.4082;1004.904;;;;
2019/07/05 09:55:08;;;;;;;11.5;2.1;;;;;;;31.97;23.43262;1004.907;;;;
2019/07/05 09:58:28;;;;;;;7;2.1;;;;;;;31.93;23.34375;1004.873;;;;
2019/07/05 10:00:54;;;;;;;8.2;2;;;;;;;31.89;23.47754;1004.835;;;;
2019/07/05 10:03:22;;;;;;;7.1;2;;;;;;;31.87;23.41504;1004.844;;;;
2019/07/05 10:05:49;;;;;;;6.6;2;;;;;;;31.82;23.25293;1004.794;;;;
2019/07/05 10:08:12;;;;;;;8;2.1;;;;;;;31.79;23.15234;1004.811;;;;
2019/07/05 10:08:26;;;;;;;7.2;1.9;;;;;;;31.79;23.15234;1004.794;;;;
2019/07/05 10:10:51;;;;;;;8.5;2.3;;;;;;;31.77;23.05273;1004.754;;;;
2019/07/05 10:13:17;;;;;;;7.1;1.9;;;;;;;31.75;24.24512;1004.757;;;;
2019/07/05 10:16:35;;;;;;;8.6;2.8;;;;;;;31.83;23.58496;1004.747;;;;
2019/07/05 10:19:01;;;;;;;5.2;2.1;;;;;;;31.86;23.05762;1004.777;;;;
2019/07/05 10:21:26;;;;;;;8.9;1.9;;;;;;;31.87;22.91016;1004.731;;;;
2019/07/05 10:23:51;;;;;;;6.8;2;;;;;;;31.85;22.90918;1004.736;;;;
2019/07/05 10:26:19;;;;;;;4.8;2.1;;;;;;;31.84;22.94531;1004.677;;;;
2019/07/05 10:29:35;;;;;;;4.4;2.1;;;;;;;31.83;22.87207;1004.611;;;;
2019/07/05 10:32:01;;;;;;;6.1;2.3;;;;;;;31.83;23.08105;1004.574;;;;
2019/07/05 10:32:52;;;;;;;8.7;2.3;;;;;;;31.84;23.04395;1004.528;;;;
2019/07/05 10:35:17;;;;;;;8.3;2.2;;;;;;;31.86;22.95898;1004.494;;;;
2019/07/05 10:37:42;;;;;;;9.6;2.3;;;;;;;31.86;23.0332;1004.503;;;;
2019/07/05 10:40:08;;;;;;;6.5;1.8;;;;;;;31.86;22.9834;1004.466;;;;
2019/07/05 10:42:32;;;;;;;8.3;2.3;;;;;;;31.86;23.05762;1004.413;;;;
2019/07/05 10:44:58;;;;;;;7.5;2;;;;;;;31.86;23.05762;1004.408;;;;
2019/07/05 10:48:18;;;;;;;4.5;2;;;;;;;31.85;23.00781;1004.373;;;;
2019/07/05 10:50:43;;;;;;;6.1;2.1;;;;;;;31.84;23.06934;1004.367;;;;
2019/07/05 10:51:27;;;;;;;6.9;2.3;;;;;;;31.84;23.01953;1004.335;;;;
2019/07/05 10:53:52;;;;;;;7.9;2.7;;;;;;;31.86;23.10645;1004.37;;;;
2019/07/05 10:56:17;;;;;;;7.4;2.4;;;;;;;31.84;23.11816;1004.34;;;;
2019/07/05 10:58:42;;;;;;;6.7;2.3;;;;;;;31.84;23.10547;1004.367;;;;
2019/07/05 11:02:01;;;;;;;8.5;2.4;;;;;;;31.85;23.18066;1004.329;;;;
2019/07/05 11:02:29;;;;;;;8.4;2.5;;;;;;;31.85;23.16797;1004.336;;;;
2019/07/05 11:03:22;;;;;;;6.7;2.4;;;;;;;31.86;23.13184;1004.317;;;;
2019/07/05 11:05:49;;;;;;;5.1;2.1;;;;;;;31.86;23.18066;1004.296;;;;
2019/07/05 11:08:14;;;;;;;8.1;2.1;;;;;;;31.85;23.22949;1004.311;;;;
2019/07/05 11:10:39;;;;;;;4.6;2.1;;;;;;;31.85;23.25391;1004.271;;;;
2019/07/05 11:13:03;;;;;;;5.8;2.3;;;;;;;31.87;23.19336;1004.197;;;;
2019/07/05 11:15:29;;;;;;;7.7;2.4;;;;;;;31.86;23.25391;1004.115;;;;
2019/07/05 11:17:54;;;;;;;10.8;1.9;;;;;;;31.86;23.30371;1004.099;;;;
2019/07/05 11:20:20;;;;;;;5.7;1.9;;;;;;;31.86;23.35352;1004.097;;;;
2019/07/05 11:22:45;;;;;;;5.5;2.2;;;;;;;31.86;23.32813;1004.056;;;;
2019/07/05 11:25:11;;;;;;;8.4;2.1;;;;;;;31.88;23.3291;1004.092;;;;
2019/07/05 11:25:14;;;;;;;8;2.1;;;;;;;31.88;23.3291;1004.055;;;;
2019/07/05 11:27:39;;;;;;;5.2;2.1;;;;;;;31.87;23.32813;1004.057;;;;
2019/07/05 11:27:48;;;;;;;6.9;2.1;;;;;;;31.87;23.30371;1004.044;;;;
2019/07/05 11:30:14;;;;;;;7.4;1.9;;;;;;;31.87;23.13184;1004.042;;;;
2019/07/05 11:30:22;;;;;;;5.5;1.7;;;;;;;31.88;23.07031;1004.078;;;;
2019/07/05 11:32:50;;;;;;;7.1;1.9;;;;;;;31.86;23.10645;1004.09;;;;
2019/07/05 11:35:17;;;;;;;7.3;1.9;;;;;;;31.86;23.08203;1004.029;;;;
2019/07/05 11:38:37;;;;;;;4.7;1.6;;;;;;;31.88;23.16895;1004.017;;;;
2019/07/05 11:41:02;;;;;;;6.9;1.7;;;;;;;31.89;23.20703;1003.957;;;;
2019/07/05 11:43:30;;;;;;;4.3;1.9;;;;;;;31.9;23.18262;1003.947;;;;
2019/07/05 11:45:53;;;;;;;8.1;2;;;;;;;31.89;23.21973;1003.928;;;;
2019/07/05 11:48:19;;;;;;;5.9;1.7;;;;;;;31.9;23.37891;1003.907;;;;
2019/07/05 11:50:46;;;;;;;7.4;2.3;;;;;;;31.92;23.17188;1003.898;;;;
2019/07/05 11:53:13;;;;;;;6.6;1.7;;;;;;;31.92;22.86426;1003.918;;;;
2019/07/05 11:55:39;;;;;;;7.7;1.9;;;;;;;31.95;23.09863;1003.887;;;;
2019/07/05 11:58:05;;;;;;;4.5;1.4;;;;;;;31.93;22.9873;1003.833;;;;
2019/07/05 12:00:30;;;;;;;3.7;1.7;;;;;;;31.92;23.06055;1003.836;;;;
2019/07/05 12:02:56;;;;;;;4.8;1.8;;;;;;;31.92;22.9375;1003.876;;;;
2019/07/05 12:05:21;;;;;;;3.9;1.4;;;;;;;31.92;23.4541;1003.853;;;;
2019/07/05 12:07:46;;;;;;;7.3;1.9;;;;;;;31.92;23.18359;1003.785;;;;
2019/07/05 12:10:12;;;;;;;7.6;1.7;;;;;;;31.96;22.64453;1003.768;;;;
2019/07/05 12:12:37;;;;;;;6.7;1.7;;;;;;;31.95;23.0127;1003.77;;;;
2019/07/05 12:15:01;;;;;;;2.9;1.3;;;;;;;31.95;22.5459;1003.72;;;;
2019/07/05 12:17:28;;;;;;;3.7;1.4;;;;;;;31.96;22.91504;1003.74;;;;
2019/07/05 12:19:52;;;;;;;5.1;1.3;;;;;;;31.97;22.75586;1003.715;;;;
2019/07/05 12:23:11;;;;;;;4.7;1.6;;;;;;;31.95;22.72949;1003.692;;;;
2019/07/05 12:25:39;;;;;;;5.9;1.4;;;;;;;31.98;22.64551;1003.714;;;;
2019/07/05 12:28:01;;;;;;;5.2;1.6;;;;;;;31.96;22.78027;1003.677;;;;
2019/07/05 12:30:26;;;;;;;4.1;1.7;;;;;;;31.97;23.02637;1003.595;;;;
2019/07/05 12:32:52;;;;;;;4.7;1.5;;;;;;;31.99;23.11328;1003.546;;;;
2019/07/05 12:35:24;;;;;;;4.8;1.5;;;;;;;32;23.16309;1003.549;;;;
2019/07/05 12:37:42;;;;;;;2.2;1.4;;;;;;;32.01;23.23828;1003.558;;;;
2019/07/05 12:40:08;;;;;;;4;1.3;;;;;;;32.03;23.2998;1003.547;;;;
2019/07/05 12:42:33;;;;;;;4.7;1.3;;;;;;;32.04;23.41113;1003.593;;;;
2019/07/05 12:45:01;;;;;;;7.5;1.4;;;;;;;32.04;23.39941;1003.545;;;;
2019/07/05 12:47:24;;;;;;;5.4;1.7;;;;;;;32.06;23.3877;1003.535;;;;
2019/07/05 12:49:49;;;;;;;8.7;1.5;;;;;;;32.07;23.38867;1003.49;;;;
2019/07/05 12:52:14;;;;;;;4.4;1.6;;;;;;;32.05;23.48535;1003.461;;;;
2019/07/05 12:54:40;;;;;;;4.2;1.4;;;;;;;32.07;23.51074;1003.481;;;;
2019/07/05 12:57:05;;;;;;;7.6;1.5;;;;;;;32.08;23.53711;1003.476;;;;
2019/07/05 13:00:24;;;;;;;6.4;1.6;;;;;;;32.08;23.68457;1003.455;;;;
2019/07/05 13:02:48;;;;;;;5.1;1.5;;;;;;;32.09;23.67188;1003.513;;;;
2019/07/05 13:05:14;;;;;;;4.5;1.4;;;;;;;32.08;23.67188;1003.448;;;;
2019/07/05 13:07:40;;;;;;;2.9;1.6;;;;;;;32.08;24.50781;1003.4;;;;
2019/07/05 13:10:05;;;;;;;3.2;1.5;;;;;;;32.09;23.7832;1003.383;;;;
2019/07/05 13:12:30;;;;;;;4.1;1.6;;;;;;;32.11;23.85742;1003.349;;;;
2019/07/05 13:14:57;;;;;;;5;1.6;;;;;;;32.11;23.83301;1003.262;;;;
2019/07/05 13:17:22;;;;;;;4.7;1.5;;;;;;;32.14;23.99512;1003.166;;;;
2019/07/05 13:19:48;;;;;;;4.5;1.6;;;;;;;32.13;24.09277;1003.143;;;;
2019/07/05 13:22:14;;;;;;;4.3;1.5;;;;;;;32.13;24.1416;1003.099;;;;
2019/07/05 13:24:39;;;;;;;4.4;1.6;;;;;;;32.14;24.08105;1003.037;;;;
2019/07/05 13:27:04;;;;;;;4.6;1.7;;;;;;;32.15;24.17969;1003.082;;;;
2019/07/05 13:29:30;;;;;;;3.9;1.4;;;;;;;32.13;24.78223;1003.047;;;;
2019/07/05 13:31:58;;;;;;;7.4;1.6;;;;;;;32.1;24.58398;1003.053;;;;
2019/07/05 13:34:23;;;;;;;5;1.6;;;;;;;32.12;24.48535;1003.064;;;;
2019/07/05 13:36:48;;;;;;;5.7;1.7;;;;;;;32.14;24.4375;1003.081;;;;
2019/07/05 13:37:16;;;;;;;9.1;1.6;;;;;;;32.14;24.37598;1003.032;;;;
2019/07/05 13:39:44;;;;;;;7;1.6;;;;;;;32.15;24.31445;1003.031;;;;
2019/07/05 13:43:05;;;;;;;4.4;1.5;;;;;;;32.15;24.27832;1002.932;;;;
2019/07/05 13:45:32;;;;;;;4.9;1.5;;;;;;;32.15;24.25391;1002.882;;;;
2019/07/05 13:47:57;;;;;;;5.4;1.7;;;;;;;32.16;24.27832;1002.877;;;;
2019/07/05 13:51:17;;;;;;;4.3;1.5;;;;;;;32.13;24.29004;1002.776;;;;
2019/07/05 13:53:42;;;;;;;5.2;1.7;;;;;;;32.13;24.30176;1002.76;;;;
2019/07/05 13:56:07;;;;;;;4.7;1.6;;;;;;;32.12;24.30078;1002.685;;;;
2019/07/05 13:59:27;;;;;;;5.2;1.5;;;;;;;32.1;24.3125;1002.718;;;;
2019/07/05 14:01:51;;;;;;;2.9;1.4;;;;;;;32.08;24.33594;1002.654;;;;
2019/07/05 14:04:18;;;;;;;3.5;1.6;;;;;;;32.08;24.33691;1002.557;;;;